createdAt,value
2023-02-22T00:01:02.974Z,11.70
2023-02-22T00:03:35.472Z,12.20
2023-02-22T00:06:05.108Z,13.23
2023-02-22T00:08:38.699Z,10.55
2023-02-22T00:11:09.490Z,10.50
2023-02-22T00:13:39.588Z,12.27
2023-02-22T00:16:07.460Z,11.90
2023-02-22T00:18:34.442Z,10.48
2023-02-22T00:21:02.856Z,11.82
2023-02-22T00:23:32.195Z,11.90
2023-02-22T00:26:01.938Z,13.40
2023-02-22T00:28:30.692Z,9.82
2023-02-22T00:31:00.099Z,12.50
2023-02-22T00:33:27.901Z,13.65
2023-02-22T00:35:56.462Z,12.93
2023-02-22T00:38:24.125Z,11.57
2023-02-22T00:40:52.722Z,13.38
2023-02-22T00:43:20.639Z,12.43
2023-02-22T00:45:49.150Z,11.70
2023-02-22T00:48:17.475Z,13.98
2023-02-22T00:50:45.411Z,9.68
2023-02-22T00:53:13.315Z,11.60
2023-02-22T00:55:41.808Z,8.60
2023-02-22T00:58:09.172Z,10.55
2023-02-22T01:00:40.039Z,6.75
2023-02-22T01:03:11.879Z,7.80
2023-02-22T01:05:38.923Z,7.97
2023-02-22T01:08:09.786Z,10.60
2023-02-22T01:10:38.758Z,9.63
2023-02-22T01:13:09.019Z,7.88
2023-02-22T01:15:39.613Z,11.75
2023-02-22T01:18:07.804Z,11.23
2023-02-22T01:20:35.132Z,7.70
2023-02-22T01:23:06.494Z,7.47
2023-02-22T01:25:34.820Z,9.05
2023-02-22T01:28:06.200Z,9.23
2023-02-22T01:30:37.081Z,8.45
2023-02-22T01:33:09.041Z,6.82
2023-02-22T01:35:42.122Z,7.85
2023-02-22T01:40:42.789Z,6.85
2023-02-22T01:43:20.088Z,7.97
2023-02-22T01:45:55.727Z,12.18
2023-02-22T01:48:32.756Z,6.72
2023-02-22T01:51:11.402Z,9.40
2023-02-22T01:53:58.391Z,8.70
2023-02-22T01:56:31.283Z,8.07
2023-02-22T01:59:08.108Z,6.85
2023-02-22T02:01:38.511Z,8.85
2023-02-22T02:04:21.922Z,7.20
2023-02-22T02:06:50.269Z,9.70
2023-02-22T02:09:42.455Z,10.45
2023-02-22T02:12:12.784Z,7.28
2023-02-22T02:14:42.351Z,8.45
2023-02-22T02:17:13.213Z,6.60
2023-02-22T02:20:07.486Z,6.70
2023-02-22T02:23:15.371Z,5.93
2023-02-22T02:26:15.310Z,8.02
2023-02-22T02:28:46.258Z,6.45
2023-02-22T02:31:39.718Z,6.63
2023-02-22T02:34:19.053Z,6.18
2023-02-22T02:37:28.932Z,7.93
2023-02-22T02:40:32.180Z,11.57
2023-02-22T02:43:15.778Z,7.32
2023-02-22T02:45:59.493Z,5.05
2023-02-22T02:48:29.039Z,5.60
2023-02-22T02:51:01.518Z,6.82
2023-02-22T02:53:38.458Z,6.85
2023-02-22T02:56:06.363Z,6.82
2023-02-22T02:58:34.298Z,8.07
2023-02-22T03:01:06.039Z,13.25
2023-02-22T03:04:06.043Z,8.60
2023-02-22T03:07:01.135Z,7.65
2023-02-22T03:09:38.828Z,9.60
2023-02-22T03:12:15.500Z,9.27
2023-02-22T03:15:15.554Z,9.98
2023-02-22T03:18:17.726Z,10.98
2023-02-22T03:21:00.478Z,8.52
2023-02-22T03:23:55.476Z,8.18
2023-02-22T03:26:32.392Z,9.18
2023-02-22T03:29:05.320Z,8.38
2023-02-22T03:31:41.214Z,32.05
2023-02-22T03:34:17.057Z,21.90
2023-02-22T03:36:50.194Z,19.55
2023-02-22T03:39:20.995Z,28.90
2023-02-22T03:42:01.831Z,24.52
2023-02-22T03:44:32.781Z,20.35
2023-02-22T03:47:07.101Z,31.80
2023-02-22T03:49:54.642Z,23.33
2023-02-22T03:52:25.489Z,27.70
2023-02-22T03:54:54.465Z,28.98
2023-02-22T03:57:35.396Z,19.67
2023-02-22T04:00:14.932Z,19.85
2023-02-22T04:02:42.732Z,49.97
2023-02-22T04:05:11.154Z,45.50
2023-02-22T04:07:41.789Z,36.40
2023-02-22T04:10:10.769Z,53.13
2023-02-22T04:12:37.911Z,40.83
2023-02-22T04:15:08.636Z,40.65
2023-02-22T04:17:35.755Z,24.90
2023-02-22T04:20:04.673Z,13.90
2023-02-22T04:22:31.488Z,31.90
2023-02-22T04:25:00.503Z,23.30
2023-02-22T04:27:28.330Z,31.83
2023-02-22T04:29:56.348Z,8.55
2023-02-22T04:32:23.287Z,10.73
2023-02-22T04:34:50.122Z,14.13
2023-02-22T04:37:18.703Z,14.88
2023-02-22T04:39:47.092Z,13.23
2023-02-22T04:42:14.951Z,18.67
2023-02-22T04:44:42.866Z,24.25
2023-02-22T04:47:09.803Z,8.30
2023-02-22T04:49:39.146Z,31.25
2023-02-22T04:52:07.648Z,26.02
2023-02-22T04:54:35.546Z,21.90
2023-02-22T04:57:02.395Z,16.38
2023-02-22T04:59:30.391Z,20.58
2023-02-22T05:01:58.309Z,17.35
2023-02-22T05:04:26.112Z,19.13
2023-02-22T05:06:55.065Z,29.60
2023-02-22T05:09:22.182Z,34.05
2023-02-22T05:11:49.375Z,42.00
2023-02-22T05:14:16.920Z,28.67
2023-02-22T05:16:44.851Z,26.70
2023-02-22T05:19:12.812Z,55.22
2023-02-22T05:21:41.685Z,32.17
2023-02-22T05:24:09.522Z,41.60
2023-02-22T05:26:36.291Z,28.67
2023-02-22T05:29:03.977Z,30.85
2023-02-22T05:31:31.453Z,35.90
2023-02-22T05:33:58.721Z,27.20
2023-02-22T05:36:26.216Z,31.15
2023-02-22T05:38:53.127Z,47.92
2023-02-22T05:41:21.306Z,26.83
2023-02-22T05:43:50.500Z,46.05
2023-02-22T05:46:17.521Z,37.47
2023-02-22T05:48:44.815Z,39.30
2023-02-22T05:51:12.738Z,28.60
2023-02-22T05:53:39.658Z,22.15
2023-02-22T05:56:07.195Z,52.35
2023-02-22T05:58:35.509Z,29.45
2023-02-22T06:01:03.495Z,42.92
2023-02-22T06:03:30.410Z,34.90
2023-02-22T06:05:58.184Z,28.60
2023-02-22T06:08:25.119Z,39.22
2023-02-22T06:10:54.473Z,31.45
2023-02-22T06:13:22.204Z,32.55
2023-02-22T06:15:49.206Z,26.70
2023-02-22T06:18:16.855Z,16.70
2023-02-22T06:20:44.759Z,40.45
2023-02-22T06:23:12.697Z,28.55
2023-02-22T06:25:40.637Z,17.35
2023-02-22T06:28:09.529Z,20.13
2023-02-22T06:30:37.275Z,9.10
2023-02-22T06:33:04.376Z,35.80
2023-02-22T06:35:32.302Z,38.70
2023-02-22T06:37:59.243Z,61.53
2023-02-22T06:40:29.716Z,33.42
2023-02-22T06:43:00.151Z,41.17
2023-02-22T06:45:27.642Z,37.00
2023-02-22T06:47:55.895Z,36.83
2023-02-22T06:50:29.781Z,27.67
2023-02-22T06:52:59.742Z,38.25
2023-02-22T06:55:32.674Z,12.20
2023-02-22T06:58:01.465Z,20.30
2023-02-22T07:00:31.501Z,23.90
2023-02-22T07:03:01.451Z,14.52
2023-02-22T07:05:29.337Z,25.92
2023-02-22T07:08:04.981Z,15.05
2023-02-22T07:10:34.998Z,10.90
2023-02-22T07:13:04.333Z,17.85
2023-02-22T07:15:33.806Z,13.27
2023-02-22T07:18:01.580Z,22.85
2023-02-22T07:20:31.131Z,31.63
2023-02-22T07:22:59.779Z,12.77
2023-02-22T07:25:27.183Z,16.45
2023-02-22T07:27:54.600Z,21.85
2023-02-22T07:30:31.227Z,19.45
2023-02-22T07:33:02.392Z,27.08
2023-02-22T07:35:33.254Z,12.68
2023-02-22T07:38:00.216Z,10.27
2023-02-22T07:40:28.288Z,17.52
2023-02-22T07:43:15.134Z,19.92
2023-02-22T07:45:43.756Z,20.60
2023-02-22T07:48:12.504Z,16.80
2023-02-22T07:50:42.889Z,16.05
2023-02-22T07:53:20.795Z,20.67
2023-02-22T07:55:52.319Z,21.42
2023-02-22T07:58:23.721Z,20.08
2023-02-22T08:00:52.548Z,17.60
2023-02-22T08:03:22.566Z,35.72
2023-02-22T08:05:58.395Z,17.70
2023-02-22T08:08:25.325Z,52.97
2023-02-22T08:10:54.386Z,35.60
2023-02-22T08:13:23.175Z,37.05
2023-02-22T08:15:55.006Z,50.20
2023-02-22T08:18:24.106Z,39.03
2023-02-22T08:20:54.628Z,25.85
2023-02-22T08:23:25.416Z,22.35
2023-02-22T08:25:53.188Z,11.27
2023-02-22T08:28:25.347Z,8.70
2023-02-22T08:30:52.695Z,17.13
2023-02-22T08:33:22.662Z,10.63
2023-02-22T08:35:52.440Z,12.93
2023-02-22T08:38:29.497Z,13.60
2023-02-22T08:40:57.268Z,23.55
2023-02-22T08:43:25.218Z,15.45
2023-02-22T08:45:54.048Z,7.95
2023-02-22T08:48:22.330Z,7.25
2023-02-22T08:50:50.834Z,9.27
2023-02-22T08:53:18.889Z,9.02
2023-02-22T08:55:46.798Z,9.27
2023-02-22T08:58:14.527Z,10.02
2023-02-22T09:00:45.496Z,12.25
2023-02-22T09:03:15.919Z,13.25
2023-02-22T09:05:43.941Z,13.25
2023-02-22T09:08:11.014Z,9.38
2023-02-22T09:10:38.136Z,9.68
2023-02-22T09:13:05.468Z,10.65
2023-02-22T09:15:36.184Z,10.55
2023-02-22T09:18:06.937Z,7.43
2023-02-22T09:20:35.948Z,10.43
2023-02-22T09:23:06.318Z,9.95
2023-02-22T09:25:34.231Z,9.40
2023-02-22T09:28:02.618Z,9.63
2023-02-22T09:30:37.628Z,9.63
2023-02-22T09:33:12.361Z,10.70
2023-02-22T09:35:43.003Z,9.98
2023-02-22T09:38:11.659Z,8.88
2023-02-22T09:40:51.247Z,11.05
2023-02-22T09:43:35.922Z,10.52
2023-02-22T09:46:28.313Z,10.25
2023-02-22T09:49:40.142Z,16.75
2023-02-22T09:52:27.487Z,15.18
2023-02-22T09:55:10.271Z,11.38
2023-02-22T09:57:43.808Z,9.85
2023-02-22T10:00:22.166Z,6.85
2023-02-22T10:03:29.512Z,8.68
2023-02-22T10:06:12.511Z,7.03
2023-02-22T10:08:41.069Z,8.48
2023-02-22T10:11:27.504Z,7.57
2023-02-22T10:14:16.113Z,8.02
2023-02-22T10:17:24.445Z,9.10
2023-02-22T10:20:14.034Z,7.05
2023-02-22T10:23:20.602Z,9.85
2023-02-22T10:25:57.387Z,8.85
2023-02-22T10:28:33.230Z,9.98
2023-02-22T10:31:20.171Z,12.20
2023-02-22T10:33:50.638Z,9.30
2023-02-22T10:36:24.145Z,11.52
2023-02-22T10:39:18.849Z,12.70
2023-02-22T10:41:52.895Z,8.43
2023-02-22T10:44:20.311Z,5.70
2023-02-22T10:46:48.754Z,6.53
2023-02-22T10:49:25.142Z,4.88
2023-02-22T10:52:04.613Z,5.72
2023-02-22T10:54:37.972Z,5.20
2023-02-22T10:57:05.888Z,7.80
2023-02-22T10:59:37.214Z,5.20
2023-02-22T11:02:31.517Z,5.43
2023-02-22T11:05:01.449Z,3.90
2023-02-22T11:07:34.464Z,4.25
2023-02-22T11:12:39.393Z,4.13
2023-02-22T11:15:24.302Z,4.28
2023-02-22T11:17:55.738Z,3.70
2023-02-22T11:20:25.764Z,6.53
2023-02-22T11:22:57.991Z,3.10
2023-02-22T11:25:39.733Z,4.87
2023-02-22T11:28:21.629Z,3.35
2023-02-22T11:30:52.074Z,3.63
2023-02-22T11:33:26.692Z,4.28
2023-02-22T11:36:00.746Z,5.45
2023-02-22T11:38:41.453Z,5.28
2023-02-22T11:41:17.956Z,3.70
2023-02-22T11:43:51.443Z,3.75
2023-02-22T11:46:23.304Z,3.78
2023-02-22T11:50:31.311Z,3.97
2023-02-22T11:53:25.368Z,3.55
2023-02-22T12:00:50.387Z,4.05
2023-02-22T12:05:06.234Z,2.80
2023-02-22T12:13:09.616Z,4.18
2023-02-22T12:53:26.149Z,3.47
2023-02-22T12:56:16.012Z,5.07
2023-02-22T12:58:54.222Z,5.13
2023-02-22T13:01:30.064Z,3.47
2023-02-22T13:03:56.929Z,3.55
2023-02-22T13:06:42.740Z,3.60
2023-02-22T13:09:26.556Z,3.25
2023-02-22T13:12:44.917Z,6.22
2023-02-22T13:15:31.396Z,4.28
2023-02-22T13:18:23.378Z,3.42
2023-02-22T13:21:24.084Z,5.40
2023-02-22T13:24:30.357Z,4.47
2023-02-22T13:27:08.974Z,3.50
2023-02-22T13:29:42.457Z,6.22
2023-02-22T13:32:36.714Z,4.10
2023-02-22T13:35:40.967Z,5.05
2023-02-22T13:38:28.448Z,3.92
2023-02-22T13:41:31.946Z,3.85
2023-02-22T13:44:31.045Z,4.32
2023-02-22T13:47:17.109Z,5.43
2023-02-22T13:50:17.106Z,4.63
2023-02-22T13:52:47.061Z,5.38
2023-02-22T13:55:24.715Z,7.03
2023-02-22T13:58:03.583Z,5.63
2023-02-22T14:00:51.405Z,5.05
2023-02-22T14:03:41.490Z,5.32
2023-02-22T14:06:31.244Z,5.60
2023-02-22T14:09:14.508Z,5.53
2023-02-22T14:14:14.700Z,7.22
2023-02-22T14:16:42.463Z,4.90
2023-02-22T14:19:23.809Z,4.40
2023-02-22T14:22:04.460Z,5.05
2023-02-22T14:24:45.122Z,3.38
2023-02-22T14:27:13.233Z,6.43
2023-02-22T14:29:55.875Z,4.13
2023-02-22T14:32:32.952Z,4.25
2023-02-22T14:35:28.705Z,4.50
2023-02-22T14:38:00.775Z,7.07
2023-02-22T14:40:34.801Z,5.90
2023-02-22T14:43:19.949Z,11.70
2023-02-22T14:46:19.708Z,5.35
2023-02-22T14:48:49.345Z,4.10
2023-02-22T14:51:42.449Z,3.88
2023-02-22T14:54:25.650Z,4.00
2023-02-22T14:57:15.087Z,4.80
2023-02-22T15:00:01.244Z,3.45
2023-02-22T15:02:38.708Z,6.55
2023-02-22T15:05:05.914Z,4.57
2023-02-22T15:07:35.721Z,4.70
2023-02-22T15:10:21.285Z,4.30
2023-02-22T15:13:09.810Z,7.63
2023-02-22T15:15:49.900Z,5.50
2023-02-22T15:18:53.252Z,3.97
2023-02-22T15:21:24.490Z,5.93
2023-02-22T15:23:56.692Z,3.95
2023-02-22T15:26:36.127Z,8.13
2023-02-22T15:29:15.146Z,4.53
2023-02-22T15:31:48.337Z,8.50
2023-02-22T15:34:15.614Z,6.90
2023-02-22T15:36:46.929Z,5.43
2023-02-22T15:39:30.454Z,4.43
2023-02-22T15:42:21.120Z,5.95
2023-02-22T15:44:55.632Z,9.52
2023-02-22T15:47:32.488Z,9.80
2023-02-22T15:50:27.024Z,5.97
2023-02-22T15:53:03.290Z,7.72
2023-02-22T15:55:42.288Z,8.43
2023-02-22T15:58:25.519Z,6.65
2023-02-22T16:01:12.433Z,6.07
2023-02-22T16:03:45.463Z,6.75
2023-02-22T16:08:55.055Z,7.45
2023-02-22T16:11:31.164Z,11.85
2023-02-22T16:14:35.224Z,10.40
2023-02-22T16:18:01.332Z,11.13
2023-02-22T16:20:32.509Z,8.75
2023-02-22T16:23:00.171Z,12.10
2023-02-22T16:25:40.325Z,9.02
2023-02-22T16:28:33.971Z,9.90
2023-02-22T16:31:02.221Z,11.13
2023-02-22T16:33:34.264Z,11.38
2023-02-22T16:36:08.113Z,13.07
2023-02-22T16:38:38.702Z,7.53
2023-02-22T16:41:07.770Z,11.65
2023-02-22T16:43:36.269Z,8.27
2023-02-22T16:46:04.772Z,11.27
2023-02-22T16:48:34.263Z,13.77
2023-02-22T16:51:14.923Z,9.38
2023-02-22T16:53:42.231Z,11.30
2023-02-22T16:56:12.052Z,11.88
2023-02-22T16:58:40.938Z,8.95
2023-02-22T17:01:09.128Z,10.48
2023-02-22T17:03:36.799Z,9.70
2023-02-22T17:06:04.277Z,10.13
2023-02-22T17:08:32.732Z,9.75
2023-02-22T17:11:00.781Z,11.20
2023-02-22T17:13:29.769Z,11.68
2023-02-22T17:15:58.293Z,17.52
2023-02-22T17:18:30.605Z,12.25
2023-02-22T17:20:57.803Z,12.57
2023-02-22T17:23:27.527Z,11.93
2023-02-22T17:26:02.462Z,12.65
2023-02-22T17:28:31.788Z,16.58
2023-02-22T17:31:02.216Z,14.40
2023-02-22T17:33:33.834Z,16.13
2023-02-22T17:36:03.497Z,16.02
2023-02-22T17:38:32.729Z,13.82
2023-02-22T17:41:01.430Z,16.23
2023-02-22T17:43:29.304Z,13.68
2023-02-22T17:45:57.160Z,13.23
2023-02-22T17:48:24.614Z,12.43
2023-02-22T17:50:53.588Z,11.77
2023-02-22T17:53:22.940Z,15.73
2023-02-22T17:55:51.388Z,13.25
2023-02-22T17:58:19.343Z,14.35
2023-02-22T18:00:49.133Z,13.15
2023-02-22T18:03:25.671Z,11.90
2023-02-22T18:06:00.845Z,18.55
2023-02-22T18:08:31.062Z,14.52
2023-02-22T18:10:58.952Z,14.27
2023-02-22T18:13:27.910Z,13.48
2023-02-22T18:15:59.926Z,13.07
2023-02-22T18:18:27.705Z,9.57
2023-02-22T18:21:00.029Z,12.65
2023-02-22T18:23:30.509Z,17.45
2023-02-22T18:26:10.067Z,13.68
2023-02-22T18:28:39.037Z,13.57
2023-02-22T18:31:16.303Z,14.48
2023-02-22T18:33:45.646Z,13.32
2023-02-22T18:36:14.725Z,16.42
2023-02-22T18:38:43.772Z,13.02
2023-02-22T18:41:17.281Z,14.57
2023-02-22T18:43:46.784Z,14.32
2023-02-22T18:46:18.286Z,13.73
2023-02-22T18:48:53.792Z,16.77
2023-02-22T18:51:21.698Z,11.65
2023-02-22T18:53:50.454Z,17.25
2023-02-22T18:56:22.333Z,14.80
2023-02-22T18:58:54.380Z,21.75
2023-02-22T19:01:23.048Z,11.20
2023-02-22T19:03:51.773Z,16.45
2023-02-22T19:06:22.500Z,49.97
2023-02-22T19:08:51.246Z,30.83
2023-02-22T19:11:22.143Z,50.17
2023-02-22T19:13:53.982Z,46.83
2023-02-22T19:16:23.615Z,29.98
2023-02-22T19:18:57.070Z,19.55
2023-02-22T19:21:27.152Z,17.13
2023-02-22T19:23:57.430Z,15.50
2023-02-22T19:26:27.409Z,14.13
2023-02-22T19:28:58.527Z,16.70
2023-02-22T19:31:34.267Z,17.80
2023-02-22T19:34:05.057Z,14.05
2023-02-22T19:36:32.775Z,13.02
2023-02-22T19:39:03.111Z,15.60
2023-02-22T19:41:30.773Z,12.20
2023-02-22T19:43:58.792Z,15.93
2023-02-22T19:46:25.767Z,11.38
2023-02-22T19:48:55.610Z,13.02
2023-02-22T19:51:26.538Z,13.15
2023-02-22T19:54:04.614Z,14.68
2023-02-22T19:56:35.184Z,13.63
2023-02-22T19:59:17.079Z,15.57
2023-02-22T20:01:44.721Z,15.45
2023-02-22T20:04:18.459Z,12.98
2023-02-22T20:06:48.391Z,15.30
2023-02-22T20:09:20.140Z,16.40
2023-02-22T20:11:48.777Z,14.23
2023-02-22T20:14:23.565Z,13.07
2023-02-22T20:16:55.961Z,14.20
2023-02-22T20:19:24.556Z,12.63
2023-02-22T20:21:55.755Z,13.05
2023-02-22T20:24:28.001Z,14.48
2023-02-22T20:26:57.509Z,12.03
2023-02-22T20:29:31.792Z,13.52
2023-02-22T20:32:03.089Z,13.57
2023-02-22T20:34:33.918Z,16.77
2023-02-22T20:37:02.171Z,12.73
2023-02-22T20:39:29.614Z,11.88
2023-02-22T20:42:00.623Z,17.98
2023-02-22T20:44:28.643Z,13.98
2023-02-22T20:46:55.897Z,11.95
2023-02-22T20:49:23.684Z,16.67
2023-02-22T20:51:51.424Z,16.40
2023-02-22T20:54:18.689Z,20.67
2023-02-22T20:56:48.544Z,12.77
2023-02-22T20:59:19.393Z,13.30
2023-02-22T21:01:50.257Z,13.45
2023-02-22T21:04:17.788Z,14.63
2023-02-22T21:06:48.560Z,15.93
2023-02-22T21:09:19.664Z,18.42
2023-02-22T21:11:47.914Z,29.50
2023-02-22T21:14:19.827Z,21.15
2023-02-22T21:16:50.099Z,18.75
2023-02-22T21:19:27.152Z,17.98
2023-02-22T21:21:57.902Z,18.95
2023-02-22T21:24:27.552Z,16.05
2023-02-22T21:26:58.741Z,14.23
2023-02-22T21:29:27.600Z,19.77
2023-02-22T21:31:54.821Z,16.33
2023-02-22T21:34:22.559Z,16.45
2023-02-22T21:36:50.645Z,17.08
2023-02-22T21:39:21.141Z,17.80
2023-02-22T21:41:52.509Z,15.20
2023-02-22T21:44:22.103Z,16.30
2023-02-22T21:46:50.038Z,16.63
2023-02-22T21:49:19.153Z,17.05
2023-02-22T21:51:46.376Z,15.20
2023-02-22T21:54:13.778Z,16.17
2023-02-22T21:56:43.538Z,14.63
2023-02-22T21:59:15.247Z,16.20
2023-02-22T22:01:49.845Z,15.32
2023-02-22T22:04:24.168Z,16.48
2023-02-22T22:06:54.288Z,16.92
2023-02-22T22:09:23.677Z,16.40
2023-02-22T22:11:59.186Z,15.98
2023-02-22T22:14:28.129Z,14.95
2023-02-22T22:17:00.952Z,15.52
2023-02-22T22:19:30.495Z,20.33
2023-02-22T22:21:58.861Z,16.25
2023-02-22T22:24:29.784Z,13.77
2023-02-22T22:27:03.435Z,15.82
2023-02-22T22:29:34.746Z,13.43
2023-02-22T22:32:03.594Z,15.27
2023-02-22T22:34:30.527Z,15.35
2023-02-22T22:36:58.934Z,15.02
2023-02-22T22:39:28.022Z,14.55
2023-02-22T22:41:55.170Z,15.40
2023-02-22T22:44:26.882Z,20.90
2023-02-22T22:46:54.953Z,17.17
2023-02-22T22:49:25.370Z,15.65
2023-02-22T22:51:52.889Z,14.43
2023-02-22T22:54:19.790Z,13.85
2023-02-22T22:56:46.723Z,12.23
2023-02-22T22:59:14.587Z,17.90
2023-02-22T23:01:47.400Z,14.10
2023-02-22T23:04:17.498Z,14.15
2023-02-22T23:06:52.356Z,14.40
2023-02-22T23:09:31.630Z,13.23
2023-02-22T23:12:09.155Z,14.05
2023-02-22T23:14:44.991Z,12.63
2023-02-22T23:17:26.784Z,18.65
2023-02-22T23:19:53.666Z,16.25
2023-02-22T23:22:21.279Z,15.85
2023-02-22T23:24:49.783Z,12.88
2023-02-22T23:27:19.396Z,14.07
2023-02-22T23:29:49.698Z,14.05
2023-02-22T23:32:17.488Z,14.20
2023-02-22T23:34:44.544Z,11.80
2023-02-22T23:37:14.078Z,14.18
2023-02-22T23:39:42.216Z,15.18
2023-02-22T23:42:10.065Z,11.68
2023-02-22T23:44:36.971Z,11.35
2023-02-22T23:47:05.215Z,11.82
2023-02-22T23:49:38.111Z,12.73
2023-02-22T23:52:07.815Z,13.40
2023-02-22T23:54:40.398Z,14.00
2023-02-22T23:57:08.848Z,13.82
2023-02-22T23:59:40.628Z,15.55
